sensor_id;sensor_type;location;lat;lon;timestamp;P1;durP1;ratioP1;P2;durP2;ratioP2
4420;SDS011;11824;51.178;13.546;2023-07-02T00:01:21;5.80;;;3.57;;
4420;SDS011;11824;51.178;13.546;2023-07-02T00:03:49;2.90;;;2.70;;
4420;SDS011;11824;51.178;13.546;2023-07-02T00:06:18;5.30;;;3.37;;
4420;SDS011;11824;51.178;13.546;2023-07-02T00:08:47;4.70;;;2.80;;
4420;SDS011;11824;51.178;13.546;2023-07-02T00:11:18;3.77;;;2.90;;
4420;SDS011;11824;51.178;13.546;2023-07-02T00:13:46;3.43;;;2.20;;
4420;SDS011;11824;51.178;13.546;2023-07-02T00:16:18;5.90;;;3.40;;
4420;SDS011;11824;51.178;13.546;2023-07-02T00:21:33;3.43;;;3.13;;
4420;SDS011;11824;51.178;13.546;2023-07-02T00:24:03;5.77;;;2.60;;
4420;SDS011;11824;51.178;13.546;2023-07-02T00:26:32;3.83;;;3.00;;
4420;SDS011;11824;51.178;13.546;2023-07-02T00:29:01;3.20;;;2.70;;
4420;SDS011;11824;51.178;13.546;2023-07-02T00:31:33;6.23;;;2.90;;
4420;SDS011;11824;51.178;13.546;2023-07-02T00:34:06;2.60;;;2.40;;
4420;SDS011;11824;51.178;13.546;2023-07-02T00:36:34;7.10;;;3.17;;
4420;SDS011;11824;51.178;13.546;2023-07-02T00:39:02;3.03;;;2.70;;
4420;SDS011;11824;51.178;13.546;2023-07-02T00:41:33;5.90;;;2.97;;
4420;SDS011;11824;51.178;13.546;2023-07-02T00:44:00;2.50;;;2.30;;
4420;SDS011;11824;51.178;13.546;2023-07-02T00:46:29;4.10;;;2.73;;
4420;SDS011;11824;51.178;13.546;2023-07-02T00:48:57;2.60;;;2.33;;
4420;SDS011;11824;51.178;13.546;2023-07-02T00:51:27;2.00;;;1.77;;
4420;SDS011;11824;51.178;13.546;2023-07-02T00:54:14;4.33;;;2.83;;
4420;SDS011;11824;51.178;13.546;2023-07-02T00:56:42;3.13;;;2.77;;
4420;SDS011;11824;51.178;13.546;2023-07-02T00:59:11;3.30;;;3.00;;
4420;SDS011;11824;51.178;13.546;2023-07-02T01:01:39;3.13;;;2.30;;
4420;SDS011;11824;51.178;13.546;2023-07-02T01:04:07;3.40;;;3.10;;
4420;SDS011;11824;51.178;13.546;2023-07-02T01:06:36;2.83;;;2.20;;
4420;SDS011;11824;51.178;13.546;2023-07-02T01:09:06;2.60;;;2.40;;
4420;SDS011;11824;51.178;13.546;2023-07-02T01:11:36;7.30;;;2.07;;
4420;SDS011;11824;51.178;13.546;2023-07-02T01:14:08;4.10;;;2.73;;
4420;SDS011;11824;51.178;13.546;2023-07-02T01:16:38;7.70;;;2.60;;
4420;SDS011;11824;51.178;13.546;2023-07-02T01:19:11;3.77;;;2.20;;
4420;SDS011;11824;51.178;13.546;2023-07-02T01:21:45;3.73;;;2.70;;
4420;SDS011;11824;51.178;13.546;2023-07-02T01:24:13;2.27;;;2.07;;
4420;SDS011;11824;51.178;13.546;2023-07-02T01:26:41;3.70;;;2.23;;
4420;SDS011;11824;51.178;13.546;2023-07-02T01:29:15;2.87;;;2.57;;
4420;SDS011;11824;51.178;13.546;2023-07-02T01:31:44;2.73;;;2.30;;
4420;SDS011;11824;51.178;13.546;2023-07-02T01:34:12;5.83;;;2.40;;
4420;SDS011;11824;51.178;13.546;2023-07-02T01:36:40;3.97;;;2.30;;
4420;SDS011;11824;51.178;13.546;2023-07-02T01:39:08;3.10;;;2.23;;
4420;SDS011;11824;51.178;13.546;2023-07-02T01:41:37;2.70;;;2.50;;
4420;SDS011;11824;51.178;13.546;2023-07-02T01:44:08;4.83;;;2.30;;
4420;SDS011;11824;51.178;13.546;2023-07-02T01:46:36;3.93;;;2.17;;
4420;SDS011;11824;51.178;13.546;2023-07-02T01:49:03;3.00;;;2.70;;
4420;SDS011;11824;51.178;13.546;2023-07-02T01:51:31;3.70;;;1.90;;
4420;SDS011;11824;51.178;13.546;2023-07-02T01:53:58;5.53;;;2.20;;
4420;SDS011;11824;51.178;13.546;2023-07-02T01:56:27;3.50;;;2.07;;
4420;SDS011;11824;51.178;13.546;2023-07-02T01:58:54;3.77;;;2.07;;
4420;SDS011;11824;51.178;13.546;2023-07-02T02:01:21;3.03;;;2.33;;
4420;SDS011;11824;51.178;13.546;2023-07-02T02:03:49;2.10;;;1.90;;
4420;SDS011;11824;51.178;13.546;2023-07-02T02:06:16;8.87;;;2.27;;
4420;SDS011;11824;51.178;13.546;2023-07-02T02:08:44;2.37;;;2.13;;
4420;SDS011;11824;51.178;13.546;2023-07-02T02:11:11;3.10;;;2.20;;
4420;SDS011;11824;51.178;13.546;2023-07-02T02:13:39;2.90;;;2.20;;
4420;SDS011;11824;51.178;13.546;2023-07-02T02:16:07;3.83;;;2.23;;
4420;SDS011;11824;51.178;13.546;2023-07-02T02:18:34;4.70;;;2.40;;
4420;SDS011;11824;51.178;13.546;2023-07-02T02:21:02;2.93;;;2.40;;
4420;SDS011;11824;51.178;13.546;2023-07-02T02:23:29;3.53;;;2.03;;
4420;SDS011;11824;51.178;13.546;2023-07-02T02:25:57;2.60;;;2.40;;
4420;SDS011;11824;51.178;13.546;2023-07-02T02:28:24;2.90;;;2.10;;
4420;SDS011;11824;51.178;13.546;2023-07-02T02:30:52;3.33;;;2.17;;
4420;SDS011;11824;51.178;13.546;2023-07-02T02:33:20;2.80;;;2.53;;
4420;SDS011;11824;51.178;13.546;2023-07-02T02:35:48;3.83;;;2.23;;
4420;SDS011;11824;51.178;13.546;2023-07-02T02:38:15;5.20;;;1.80;;
4420;SDS011;11824;51.178;13.546;2023-07-02T02:40:42;2.13;;;1.93;;
4420;SDS011;11824;51.178;13.546;2023-07-02T02:43:10;17.37;;;2.80;;
4420;SDS011;11824;51.178;13.546;2023-07-02T02:45:38;1.90;;;1.80;;
4420;SDS011;11824;51.178;13.546;2023-07-02T02:48:06;3.50;;;2.67;;
4420;SDS011;11824;51.178;13.546;2023-07-02T02:50:33;7.30;;;2.40;;
4420;SDS011;11824;51.178;13.546;2023-07-02T02:53:02;2.40;;;2.20;;
4420;SDS011;11824;51.178;13.546;2023-07-02T02:55:29;4.80;;;2.03;;
4420;SDS011;11824;51.178;13.546;2023-07-02T02:57:57;7.03;;;2.30;;
4420;SDS011;11824;51.178;13.546;2023-07-02T03:00:25;3.43;;;2.00;;
4420;SDS011;11824;51.178;13.546;2023-07-02T03:02:52;11.63;;;2.23;;
4420;SDS011;11824;51.178;13.546;2023-07-02T03:05:20;2.57;;;2.37;;
4420;SDS011;11824;51.178;13.546;2023-07-02T03:07:48;5.27;;;2.10;;
4420;SDS011;11824;51.178;13.546;2023-07-02T03:10:17;2.00;;;1.90;;
4420;SDS011;11824;51.178;13.546;2023-07-02T03:12:44;4.10;;;2.20;;
4420;SDS011;11824;51.178;13.546;2023-07-02T03:15:11;2.60;;;2.13;;
4420;SDS011;11824;51.178;13.546;2023-07-02T03:17:39;3.17;;;2.70;;
4420;SDS011;11824;51.178;13.546;2023-07-02T03:20:07;5.03;;;2.77;;
4420;SDS011;11824;51.178;13.546;2023-07-02T03:22:35;2.70;;;2.23;;
4420;SDS011;11824;51.178;13.546;2023-07-02T03:25:03;3.03;;;1.90;;
4420;SDS011;11824;51.178;13.546;2023-07-02T03:27:31;3.83;;;2.73;;
4420;SDS011;11824;51.178;13.546;2023-07-02T03:29:58;2.60;;;2.40;;
4420;SDS011;11824;51.178;13.546;2023-07-02T03:32:26;2.20;;;2.00;;
4420;SDS011;11824;51.178;13.546;2023-07-02T03:34:53;2.37;;;2.17;;
4420;SDS011;11824;51.178;13.546;2023-07-02T03:37:20;5.43;;;3.40;;
4420;SDS011;11824;51.178;13.546;2023-07-02T03:39:48;4.07;;;2.90;;
4420;SDS011;11824;51.178;13.546;2023-07-02T03:42:16;7.60;;;3.33;;
4420;SDS011;11824;51.178;13.546;2023-07-02T03:44:43;4.10;;;3.70;;
4420;SDS011;11824;51.178;13.546;2023-07-02T03:47:10;10.23;;;4.20;;
4420;SDS011;11824;51.178;13.546;2023-07-02T03:49:38;3.63;;;3.33;;
4420;SDS011;11824;51.178;13.546;2023-07-02T03:52:06;5.37;;;4.00;;
4420;SDS011;11824;51.178;13.546;2023-07-02T03:54:34;8.90;;;4.30;;
4420;SDS011;11824;51.178;13.546;2023-07-02T03:57:03;6.77;;;3.70;;
4420;SDS011;11824;51.178;13.546;2023-07-02T03:59:31;9.40;;;4.03;;
4420;SDS011;11824;51.178;13.546;2023-07-02T04:01:58;8.37;;;3.87;;
4420;SDS011;11824;51.178;13.546;2023-07-02T04:04:25;4.60;;;4.17;;
4420;SDS011;11824;51.178;13.546;2023-07-02T04:06:53;7.30;;;4.00;;
4420;SDS011;11824;51.178;13.546;2023-07-02T04:09:20;4.17;;;3.80;;
4420;SDS011;11824;51.178;13.546;2023-07-02T04:11:48;4.37;;;3.97;;
4420;SDS011;11824;51.178;13.546;2023-07-02T04:14:16;5.10;;;4.60;;
4420;SDS011;11824;51.178;13.546;2023-07-02T04:16:44;5.50;;;4.33;;
4420;SDS011;11824;51.178;13.546;2023-07-02T04:19:13;5.47;;;4.97;;
4420;SDS011;11824;51.178;13.546;2023-07-02T04:21:40;13.80;;;7.00;;
4420;SDS011;11824;51.178;13.546;2023-07-02T04:24:08;10.17;;;6.90;;
4420;SDS011;11824;51.178;13.546;2023-07-02T04:26:36;5.63;;;3.97;;
4420;SDS011;11824;51.178;13.546;2023-07-02T04:29:24;5.07;;;3.43;;
4420;SDS011;11824;51.178;13.546;2023-07-02T04:31:51;7.30;;;4.63;;
4420;SDS011;11824;51.178;13.546;2023-07-02T04:34:19;7.43;;;4.40;;
4420;SDS011;11824;51.178;13.546;2023-07-02T04:36:47;8.43;;;4.53;;
4420;SDS011;11824;51.178;13.546;2023-07-02T04:39:17;5.20;;;4.20;;
4420;SDS011;11824;51.178;13.546;2023-07-02T04:41:44;5.40;;;4.63;;
4420;SDS011;11824;51.178;13.546;2023-07-02T04:44:12;6.90;;;4.90;;
4420;SDS011;11824;51.178;13.546;2023-07-02T04:46:40;7.50;;;4.97;;
4420;SDS011;11824;51.178;13.546;2023-07-02T04:49:08;16.13;;;4.27;;
4420;SDS011;11824;51.178;13.546;2023-07-02T04:51:35;6.07;;;4.10;;
4420;SDS011;11824;51.178;13.546;2023-07-02T04:54:03;15.00;;;6.17;;
4420;SDS011;11824;51.178;13.546;2023-07-02T04:56:30;5.40;;;4.27;;
4420;SDS011;11824;51.178;13.546;2023-07-02T04:58:57;8.70;;;4.83;;
4420;SDS011;11824;51.178;13.546;2023-07-02T05:01:27;5.80;;;4.40;;
4420;SDS011;11824;51.178;13.546;2023-07-02T05:03:56;7.10;;;4.70;;
4420;SDS011;11824;51.178;13.546;2023-07-02T05:06:23;6.97;;;3.73;;
4420;SDS011;11824;51.178;13.546;2023-07-02T05:08:51;4.73;;;4.20;;
4420;SDS011;11824;51.178;13.546;2023-07-02T05:11:18;6.63;;;4.47;;
4420;SDS011;11824;51.178;13.546;2023-07-02T05:13:46;4.33;;;3.50;;
4420;SDS011;11824;51.178;13.546;2023-07-02T05:16:14;6.00;;;3.63;;
4420;SDS011;11824;51.178;13.546;2023-07-02T05:18:41;8.67;;;5.30;;
4420;SDS011;11824;51.178;13.546;2023-07-02T05:21:09;5.93;;;4.17;;
4420;SDS011;11824;51.178;13.546;2023-07-02T05:23:37;4.57;;;4.13;;
4420;SDS011;11824;51.178;13.546;2023-07-02T05:26:04;9.10;;;3.63;;
4420;SDS011;11824;51.178;13.546;2023-07-02T05:28:32;7.43;;;3.27;;
4420;SDS011;11824;51.178;13.546;2023-07-02T05:30:59;5.70;;;4.13;;
4420;SDS011;11824;51.178;13.546;2023-07-02T05:33:27;8.53;;;3.40;;
4420;SDS011;11824;51.178;13.546;2023-07-02T05:35:54;4.70;;;3.40;;
4420;SDS011;11824;51.178;13.546;2023-07-02T05:38:22;3.77;;;3.37;;
4420;SDS011;11824;51.178;13.546;2023-07-02T05:40:50;4.17;;;3.53;;
4420;SDS011;11824;51.178;13.546;2023-07-02T05:43:17;3.87;;;3.10;;
4420;SDS011;11824;51.178;13.546;2023-07-02T05:45:45;8.00;;;3.07;;
4420;SDS011;11824;51.178;13.546;2023-07-02T05:48:12;5.27;;;3.10;;
4420;SDS011;11824;51.178;13.546;2023-07-02T05:50:40;9.73;;;3.70;;
4420;SDS011;11824;51.178;13.546;2023-07-02T05:53:07;3.17;;;2.80;;
4420;SDS011;11824;51.178;13.546;2023-07-02T05:55:36;4.90;;;3.57;;
4420;SDS011;11824;51.178;13.546;2023-07-02T05:58:05;3.80;;;3.47;;
4420;SDS011;11824;51.178;13.546;2023-07-02T06:00:33;4.20;;;3.37;;
4420;SDS011;11824;51.178;13.546;2023-07-02T06:03:00;4.43;;;3.20;;
4420;SDS011;11824;51.178;13.546;2023-07-02T06:05:29;3.70;;;3.20;;
4420;SDS011;11824;51.178;13.546;2023-07-02T06:07:57;3.43;;;3.00;;
4420;SDS011;11824;51.178;13.546;2023-07-02T06:10:24;6.57;;;2.97;;
4420;SDS011;11824;51.178;13.546;2023-07-02T06:12:52;5.03;;;3.60;;
4420;SDS011;11824;51.178;13.546;2023-07-02T06:15:20;5.17;;;2.90;;
4420;SDS011;11824;51.178;13.546;2023-07-02T06:17:47;5.80;;;3.20;;
4420;SDS011;11824;51.178;13.546;2023-07-02T06:20:15;6.20;;;4.27;;
4420;SDS011;11824;51.178;13.546;2023-07-02T06:22:43;7.00;;;3.50;;
4420;SDS011;11824;51.178;13.546;2023-07-02T06:25:10;4.23;;;3.40;;
4420;SDS011;11824;51.178;13.546;2023-07-02T06:27:37;3.60;;;3.30;;
4420;SDS011;11824;51.178;13.546;2023-07-02T06:30:06;7.83;;;3.80;;
4420;SDS011;11824;51.178;13.546;2023-07-02T06:32:34;2.90;;;2.67;;
4420;SDS011;11824;51.178;13.546;2023-07-02T06:35:01;4.63;;;3.50;;
4420;SDS011;11824;51.178;13.546;2023-07-02T06:37:31;9.83;;;3.50;;
4420;SDS011;11824;51.178;13.546;2023-07-02T06:39:59;4.10;;;2.90;;
4420;SDS011;11824;51.178;13.546;2023-07-02T06:42:26;3.50;;;3.20;;
4420;SDS011;11824;51.178;13.546;2023-07-02T06:44:53;4.17;;;3.73;;
4420;SDS011;11824;51.178;13.546;2023-07-02T06:47:22;5.27;;;3.50;;
4420;SDS011;11824;51.178;13.546;2023-07-02T06:49:49;2.80;;;2.60;;
4420;SDS011;11824;51.178;13.546;2023-07-02T06:52:17;9.70;;;3.83;;
4420;SDS011;11824;51.178;13.546;2023-07-02T06:54:45;4.50;;;3.40;;
4420;SDS011;11824;51.178;13.546;2023-07-02T06:57:12;4.57;;;3.23;;
4420;SDS011;11824;51.178;13.546;2023-07-02T06:59:39;5.13;;;3.50;;
4420;SDS011;11824;51.178;13.546;2023-07-02T07:02:07;3.80;;;3.33;;
4420;SDS011;11824;51.178;13.546;2023-07-02T07:04:35;3.80;;;3.50;;
4420;SDS011;11824;51.178;13.546;2023-07-02T07:07:03;5.33;;;3.40;;
4420;SDS011;11824;51.178;13.546;2023-07-02T07:09:30;4.90;;;3.27;;
4420;SDS011;11824;51.178;13.546;2023-07-02T07:11:58;6.83;;;3.57;;
4420;SDS011;11824;51.178;13.546;2023-07-02T07:14:25;4.80;;;3.87;;
4420;SDS011;11824;51.178;13.546;2023-07-02T07:16:53;5.23;;;3.80;;
4420;SDS011;11824;51.178;13.546;2023-07-02T07:19:20;8.40;;;4.33;;
4420;SDS011;11824;51.178;13.546;2023-07-02T07:21:48;3.77;;;3.40;;
4420;SDS011;11824;51.178;13.546;2023-07-02T07:24:15;3.83;;;3.03;;
4420;SDS011;11824;51.178;13.546;2023-07-02T07:26:43;3.57;;;3.27;;
4420;SDS011;11824;51.178;13.546;2023-07-02T07:29:10;4.40;;;3.03;;
4420;SDS011;11824;51.178;13.546;2023-07-02T07:31:38;4.13;;;3.03;;
4420;SDS011;11824;51.178;13.546;2023-07-02T07:34:06;5.23;;;3.50;;
4420;SDS011;11824;51.178;13.546;2023-07-02T07:36:33;3.83;;;3.40;;
4420;SDS011;11824;51.178;13.546;2023-07-02T07:39:01;3.70;;;2.90;;
4420;SDS011;11824;51.178;13.546;2023-07-02T07:41:29;6.73;;;3.57;;
4420;SDS011;11824;51.178;13.546;2023-07-02T07:43:56;4.07;;;3.50;;
4420;SDS011;11824;51.178;13.546;2023-07-02T07:46:24;3.63;;;3.33;;
4420;SDS011;11824;51.178;13.546;2023-07-02T07:48:51;7.90;;;3.13;;
4420;SDS011;11824;51.178;13.546;2023-07-02T07:51:18;3.40;;;3.10;;
4420;SDS011;11824;51.178;13.546;2023-07-02T07:53:46;4.87;;;3.23;;
4420;SDS011;11824;51.178;13.546;2023-07-02T07:56:14;3.77;;;3.47;;
4420;SDS011;11824;51.178;13.546;2023-07-02T07:58:41;2.73;;;2.53;;
4420;SDS011;11824;51.178;13.546;2023-07-02T08:01:09;3.57;;;3.27;;
4420;SDS011;11824;51.178;13.546;2023-07-02T08:03:37;3.57;;;3.00;;
4420;SDS011;11824;51.178;13.546;2023-07-02T08:06:06;3.90;;;3.33;;
4420;SDS011;11824;51.178;13.546;2023-07-02T08:08:35;4.43;;;3.10;;
4420;SDS011;11824;51.178;13.546;2023-07-02T08:11:03;3.83;;;3.47;;
4420;SDS011;11824;51.178;13.546;2023-07-02T08:13:31;2.80;;;2.50;;
4420;SDS011;11824;51.178;13.546;2023-07-02T08:15:58;7.73;;;2.70;;
4420;SDS011;11824;51.178;13.546;2023-07-02T08:18:26;6.00;;;2.43;;
4420;SDS011;11824;51.178;13.546;2023-07-02T08:20:53;4.57;;;2.90;;
4420;SDS011;11824;51.178;13.546;2023-07-02T08:23:21;2.80;;;2.60;;
4420;SDS011;11824;51.178;13.546;2023-07-02T08:25:48;6.53;;;3.00;;
4420;SDS011;11824;51.178;13.546;2023-07-02T08:28:15;7.70;;;3.90;;
4420;SDS011;11824;51.178;13.546;2023-07-02T08:30:44;3.20;;;3.00;;
4420;SDS011;11824;51.178;13.546;2023-07-02T08:33:11;7.43;;;2.53;;
4420;SDS011;11824;51.178;13.546;2023-07-02T08:35:39;3.77;;;3.37;;
4420;SDS011;11824;51.178;13.546;2023-07-02T08:38:06;3.10;;;2.73;;
4420;SDS011;11824;51.178;13.546;2023-07-02T08:40:34;4.03;;;2.47;;
4420;SDS011;11824;51.178;13.546;2023-07-02T08:43:01;2.93;;;2.60;;
4420;SDS011;11824;51.178;13.546;2023-07-02T08:45:28;3.07;;;2.80;;
4420;SDS011;11824;51.178;13.546;2023-07-02T08:47:57;3.50;;;2.67;;
4420;SDS011;11824;51.178;13.546;2023-07-02T08:50:25;3.80;;;3.17;;
4420;SDS011;11824;51.178;13.546;2023-07-02T08:52:53;4.27;;;3.00;;
4420;SDS011;11824;51.178;13.546;2023-07-02T08:55:21;3.60;;;3.30;;
4420;SDS011;11824;51.178;13.546;2023-07-02T08:57:49;7.43;;;2.70;;
4420;SDS011;11824;51.178;13.546;2023-07-02T09:00:19;3.17;;;2.77;;
4420;SDS011;11824;51.178;13.546;2023-07-02T09:02:47;2.73;;;2.53;;
4420;SDS011;11824;51.178;13.546;2023-07-02T09:05:15;3.73;;;3.43;;
4420;SDS011;11824;51.178;13.546;2023-07-02T09:07:43;5.83;;;3.17;;
4420;SDS011;11824;51.178;13.546;2023-07-02T09:10:11;2.47;;;2.27;;
4420;SDS011;11824;51.178;13.546;2023-07-02T09:13:02;3.67;;;3.00;;
4420;SDS011;11824;51.178;13.546;2023-07-02T09:15:34;2.70;;;2.50;;
4420;SDS011;11824;51.178;13.546;2023-07-02T09:18:13;6.50;;;3.00;;
4420;SDS011;11824;51.178;13.546;2023-07-02T09:20:42;2.50;;;1.93;;
4420;SDS011;11824;51.178;13.546;2023-07-02T09:23:10;3.50;;;3.03;;
4420;SDS011;11824;51.178;13.546;2023-07-02T09:25:37;2.37;;;2.23;;
4420;SDS011;11824;51.178;13.546;2023-07-02T09:28:16;3.47;;;2.73;;
4420;SDS011;11824;51.178;13.546;2023-07-02T09:30:51;2.80;;;2.60;;
4420;SDS011;11824;51.178;13.546;2023-07-02T09:33:20;3.23;;;2.93;;
4420;SDS011;11824;51.178;13.546;2023-07-02T09:35:48;2.70;;;2.20;;
4420;SDS011;11824;51.178;13.546;2023-07-02T09:38:17;3.00;;;2.80;;
4420;SDS011;11824;51.178;13.546;2023-07-02T09:40:46;2.73;;;2.20;;
4420;SDS011;11824;51.178;13.546;2023-07-02T09:43:20;2.80;;;2.60;;
4420;SDS011;11824;51.178;13.546;2023-07-02T09:45:52;3.13;;;2.30;;
4420;SDS011;11824;51.178;13.546;2023-07-02T09:48:22;4.70;;;2.43;;
4420;SDS011;11824;51.178;13.546;2023-07-02T09:50:52;2.73;;;2.47;;
4420;SDS011;11824;51.178;13.546;2023-07-02T09:53:20;4.10;;;2.17;;
4420;SDS011;11824;51.178;13.546;2023-07-02T09:55:47;2.30;;;2.10;;
4420;SDS011;11824;51.178;13.546;2023-07-02T09:58:15;3.40;;;2.40;;
4420;SDS011;11824;51.178;13.546;2023-07-02T10:00:44;2.50;;;2.30;;
4420;SDS011;11824;51.178;13.546;2023-07-02T10:03:12;5.93;;;2.50;;
4420;SDS011;11824;51.178;13.546;2023-07-02T10:05:39;3.40;;;2.00;;
4420;SDS011;11824;51.178;13.546;2023-07-02T10:08:14;2.23;;;2.03;;
4420;SDS011;11824;51.178;13.546;2023-07-02T10:10:43;2.60;;;2.33;;
4420;SDS011;11824;51.178;13.546;2023-07-02T10:13:11;3.43;;;2.00;;
4420;SDS011;11824;51.178;13.546;2023-07-02T10:15:38;2.23;;;1.90;;
4420;SDS011;11824;51.178;13.546;2023-07-02T10:18:07;4.73;;;1.87;;
4420;SDS011;11824;51.178;13.546;2023-07-02T10:20:35;1.77;;;1.67;;
4420;SDS011;11824;51.178;13.546;2023-07-02T10:23:03;2.07;;;1.80;;
4420;SDS011;11824;51.178;13.546;2023-07-02T10:25:32;2.90;;;2.37;;
4420;SDS011;11824;51.178;13.546;2023-07-02T10:28:13;1.93;;;1.60;;
4420;SDS011;11824;51.178;13.546;2023-07-02T10:30:41;4.30;;;2.23;;
4420;SDS011;11824;51.178;13.546;2023-07-02T10:33:10;5.10;;;2.20;;
4420;SDS011;11824;51.178;13.546;2023-07-02T10:35:38;4.07;;;2.20;;
4420;SDS011;11824;51.178;13.546;2023-07-02T10:38:12;2.13;;;1.93;;
4420;SDS011;11824;51.178;13.546;2023-07-02T10:40:42;4.50;;;2.13;;
4420;SDS011;11824;51.178;13.546;2023-07-02T10:43:10;5.67;;;2.37;;
4420;SDS011;11824;51.178;13.546;2023-07-02T10:45:37;6.13;;;1.73;;
4420;SDS011;11824;51.178;13.546;2023-07-02T10:48:08;3.30;;;1.93;;
4420;SDS011;11824;51.178;13.546;2023-07-02T10:50:36;2.30;;;2.10;;
4420;SDS011;11824;51.178;13.546;2023-07-02T10:53:04;2.97;;;1.90;;
4420;SDS011;11824;51.178;13.546;2023-07-02T10:55:31;4.17;;;1.90;;
4420;SDS011;11824;51.178;13.546;2023-07-02T10:58:02;2.40;;;1.97;;
4420;SDS011;11824;51.178;13.546;2023-07-02T11:00:31;3.83;;;1.67;;
4420;SDS011;11824;51.178;13.546;2023-07-02T11:02:58;2.80;;;1.77;;
4420;SDS011;11824;51.178;13.546;2023-07-02T11:05:26;2.07;;;1.60;;
4420;SDS011;11824;51.178;13.546;2023-07-02T11:08:07;3.80;;;1.70;;
4420;SDS011;11824;51.178;13.546;2023-07-02T11:10:36;3.33;;;1.80;;
4420;SDS011;11824;51.178;13.546;2023-07-02T11:13:11;1.83;;;1.50;;
4420;SDS011;11824;51.178;13.546;2023-07-02T11:15:39;4.10;;;2.23;;
4420;SDS011;11824;51.178;13.546;2023-07-02T11:18:10;2.50;;;2.00;;
4420;SDS011;11824;51.178;13.546;2023-07-02T11:20:38;5.40;;;2.17;;
4420;SDS011;11824;51.178;13.546;2023-07-02T11:23:16;2.80;;;1.83;;
4420;SDS011;11824;51.178;13.546;2023-07-02T11:25:53;3.30;;;1.90;;
4420;SDS011;11824;51.178;13.546;2023-07-02T11:28:23;5.90;;;1.90;;
4420;SDS011;11824;51.178;13.546;2023-07-02T11:30:51;2.67;;;2.47;;
4420;SDS011;11824;51.178;13.546;2023-07-02T11:33:31;8.57;;;2.33;;
4420;SDS011;11824;51.178;13.546;2023-07-02T11:36:00;2.90;;;2.60;;
4420;SDS011;11824;51.178;13.546;2023-07-02T11:38:28;6.63;;;3.20;;
4420;SDS011;11824;51.178;13.546;2023-07-02T11:40:55;3.13;;;2.90;;
4420;SDS011;11824;51.178;13.546;2023-07-02T11:43:24;5.53;;;2.87;;
4420;SDS011;11824;51.178;13.546;2023-07-02T11:45:52;3.60;;;2.83;;
4420;SDS011;11824;51.178;13.546;2023-07-02T11:48:19;4.17;;;3.13;;
4420;SDS011;11824;51.178;13.546;2023-07-02T11:50:46;9.10;;;3.37;;
4420;SDS011;11824;51.178;13.546;2023-07-02T11:53:14;4.60;;;3.53;;
4420;SDS011;11824;51.178;13.546;2023-07-02T11:55:41;3.87;;;2.60;;
4420;SDS011;11824;51.178;13.546;2023-07-02T11:58:09;4.57;;;3.17;;
4420;SDS011;11824;51.178;13.546;2023-07-02T12:00:37;3.27;;;2.93;;
4420;SDS011;11824;51.178;13.546;2023-07-02T12:03:05;3.73;;;2.80;;
4420;SDS011;11824;51.178;13.546;2023-07-02T12:05:32;6.03;;;3.60;;
4420;SDS011;11824;51.178;13.546;2023-07-02T12:08:01;4.43;;;2.83;;
4420;SDS011;11824;51.178;13.546;2023-07-02T12:10:29;3.70;;;3.20;;
4420;SDS011;11824;51.178;13.546;2023-07-02T12:12:56;3.90;;;3.03;;
4420;SDS011;11824;51.178;13.546;2023-07-02T12:15:24;4.40;;;2.60;;
4420;SDS011;11824;51.178;13.546;2023-07-02T12:17:55;5.07;;;2.83;;
4420;SDS011;11824;51.178;13.546;2023-07-02T12:20:23;4.43;;;3.10;;
4420;SDS011;11824;51.178;13.546;2023-07-02T12:22:51;3.87;;;3.23;;
4420;SDS011;11824;51.178;13.546;2023-07-02T12:25:19;21.93;;;3.47;;
4420;SDS011;11824;51.178;13.546;2023-07-02T12:27:46;4.03;;;3.03;;
4420;SDS011;11824;51.178;13.546;2023-07-02T12:30:15;5.80;;;2.80;;
4420;SDS011;11824;51.178;13.546;2023-07-02T12:32:44;5.20;;;3.20;;
4420;SDS011;11824;51.178;13.546;2023-07-02T12:35:12;5.80;;;3.60;;
4420;SDS011;11824;51.178;13.546;2023-07-02T12:37:46;32.17;;;4.10;;
4420;SDS011;11824;51.178;13.546;2023-07-02T12:40:14;7.10;;;3.80;;
4420;SDS011;11824;51.178;13.546;2023-07-02T12:42:42;5.90;;;3.63;;
4420;SDS011;11824;51.178;13.546;2023-07-02T12:45:10;16.20;;;4.10;;
4420;SDS011;11824;51.178;13.546;2023-07-02T12:47:39;5.40;;;4.50;;
4420;SDS011;11824;51.178;13.546;2023-07-02T12:50:07;5.53;;;3.20;;
4420;SDS011;11824;51.178;13.546;2023-07-02T12:52:37;3.67;;;3.10;;
4420;SDS011;11824;51.178;13.546;2023-07-02T12:55:05;8.00;;;3.30;;
4420;SDS011;11824;51.178;13.546;2023-07-02T12:57:33;5.57;;;3.47;;
4420;SDS011;11824;51.178;13.546;2023-07-02T13:00:01;4.57;;;3.97;;
4420;SDS011;11824;51.178;13.546;2023-07-02T13:02:31;27.83;;;4.83;;
4420;SDS011;11824;51.178;13.546;2023-07-02T13:05:09;5.50;;;3.70;;
4420;SDS011;11824;51.178;13.546;2023-07-02T13:07:37;14.97;;;4.73;;
4420;SDS011;11824;51.178;13.546;2023-07-02T13:10:05;7.60;;;4.60;;
4420;SDS011;11824;51.178;13.546;2023-07-02T13:12:33;6.03;;;3.77;;
4420;SDS011;11824;51.178;13.546;2023-07-02T13:15:00;8.03;;;3.93;;
4420;SDS011;11824;51.178;13.546;2023-07-02T13:17:28;8.27;;;4.50;;
4420;SDS011;11824;51.178;13.546;2023-07-02T13:19:55;13.33;;;4.50;;
4420;SDS011;11824;51.178;13.546;2023-07-02T13:22:23;6.80;;;4.20;;
4420;SDS011;11824;51.178;13.546;2023-07-02T13:24:51;4.47;;;3.10;;
4420;SDS011;11824;51.178;13.546;2023-07-02T13:27:18;9.00;;;3.53;;
4420;SDS011;11824;51.178;13.546;2023-07-02T13:29:46;17.27;;;4.10;;
4420;SDS011;11824;51.178;13.546;2023-07-02T13:32:13;7.90;;;4.20;;
4420;SDS011;11824;51.178;13.546;2023-07-02T13:34:41;7.70;;;4.60;;
4420;SDS011;11824;51.178;13.546;2023-07-02T13:37:08;7.30;;;4.43;;
4420;SDS011;11824;51.178;13.546;2023-07-02T13:39:36;5.77;;;3.87;;
4420;SDS011;11824;51.178;13.546;2023-07-02T13:42:05;8.50;;;3.53;;
4420;SDS011;11824;51.178;13.546;2023-07-02T13:44:32;8.57;;;3.90;;
4420;SDS011;11824;51.178;13.546;2023-07-02T13:47:00;10.43;;;4.20;;
4420;SDS011;11824;51.178;13.546;2023-07-02T13:49:28;4.33;;;3.50;;
4420;SDS011;11824;51.178;13.546;2023-07-02T13:51:56;8.37;;;4.97;;
4420;SDS011;11824;51.178;13.546;2023-07-02T13:54:23;9.17;;;4.37;;
4420;SDS011;11824;51.178;13.546;2023-07-02T13:56:51;5.40;;;3.23;;
4420;SDS011;11824;51.178;13.546;2023-07-02T13:59:19;5.20;;;3.67;;
4420;SDS011;11824;51.178;13.546;2023-07-02T14:01:47;7.20;;;5.10;;
4420;SDS011;11824;51.178;13.546;2023-07-02T14:04:16;5.00;;;3.37;;
4420;SDS011;11824;51.178;13.546;2023-07-02T14:06:44;9.53;;;4.17;;
4420;SDS011;11824;51.178;13.546;2023-07-02T14:09:11;5.70;;;4.33;;
4420;SDS011;11824;51.178;13.546;2023-07-02T14:11:39;8.23;;;4.77;;
4420;SDS011;11824;51.178;13.546;2023-07-02T14:14:08;15.03;;;5.17;;
4420;SDS011;11824;51.178;13.546;2023-07-02T14:16:37;6.30;;;4.53;;
4420;SDS011;11824;51.178;13.546;2023-07-02T14:19:04;8.90;;;5.00;;
4420;SDS011;11824;51.178;13.546;2023-07-02T14:21:32;8.43;;;5.00;;
4420;SDS011;11824;51.178;13.546;2023-07-02T14:23:59;11.73;;;4.77;;
4420;SDS011;11824;51.178;13.546;2023-07-02T14:26:27;10.00;;;4.80;;
4420;SDS011;11824;51.178;13.546;2023-07-02T14:28:55;9.83;;;5.10;;
4420;SDS011;11824;51.178;13.546;2023-07-02T14:31:23;6.07;;;4.80;;
4420;SDS011;11824;51.178;13.546;2023-07-02T14:33:52;8.63;;;5.20;;
4420;SDS011;11824;51.178;13.546;2023-07-02T14:36:19;10.40;;;5.50;;
4420;SDS011;11824;51.178;13.546;2023-07-02T14:38:47;7.60;;;5.87;;
4420;SDS011;11824;51.178;13.546;2023-07-02T14:41:14;12.33;;;5.30;;
4420;SDS011;11824;51.178;13.546;2023-07-02T14:43:41;5.57;;;4.40;;
4420;SDS011;11824;51.178;13.546;2023-07-02T14:46:09;7.00;;;4.83;;
4420;SDS011;11824;51.178;13.546;2023-07-02T14:48:37;19.30;;;5.80;;
4420;SDS011;11824;51.178;13.546;2023-07-02T14:51:05;7.17;;;5.20;;
4420;SDS011;11824;51.178;13.546;2023-07-02T14:53:33;10.60;;;5.00;;
4420;SDS011;11824;51.178;13.546;2023-07-02T14:56:01;10.13;;;5.80;;
4420;SDS011;11824;51.178;13.546;2023-07-02T14:58:31;12.70;;;5.77;;